Time;durP1;ratioP1;P1;durP2;ratioP2;P2;SDS_P1;SDS_P2;PMS_P1;PMS_P2;Temp;Humidity;BMP_temperature;BMP_pressure;BME280_temperature;BME280_humidity;BME280_pressure;Samples;Min_cycle;Max_cycle;Signal;HPM_P1;HPM_P2
2021/10/31 00:01:26;;;;;;;20.52;14.48;;;;;;;9.66;64.10;96481.75;4809802;29;20062;-91
2021/10/31 00:03:52;;;;;;;22.20;13.20;;;;;;;9.74;62.92;96487.63;4810245;29;20034;-90
2021/10/31 00:06:18;;;;;;;19.08;13.73;;;;;;;9.90;63.05;96500.19;4809670;29;20103;-90
2021/10/31 00:08:43;;;;;;;18.75;14.57;;;;;;;9.92;63.15;96508.63;4831279;29;20094;-91
2021/10/31 00:11:09;;;;;;;20.60;14.05;;;;;;;9.68;63.42;96473.16;4861395;29;20104;-90
2021/10/31 00:13:36;;;;;;;20.02;14.13;;;;;;;9.66;63.46;96473.63;4846368;29;20038;-91
2021/10/31 00:16:03;;;;;;;18.88;14.02;;;;;;;9.86;62.94;96513.16;4855784;29;20033;-91
2021/10/31 00:18:28;;;;;;;19.65;13.65;;;;;;;9.75;62.73;96497.31;4827842;29;20086;-91
2021/10/31 00:20:56;;;;;;;15.63;12.82;;;;;;;9.79;62.60;96502.56;4824648;29;20038;-91
2021/10/31 00:23:22;;;;;;;16.65;12.68;;;;;;;9.92;62.93;96509.38;4825194;29;20034;-90
2021/10/31 00:25:48;;;;;;;18.33;12.85;;;;;;;9.75;62.99;96497.31;4824691;29;20510;-90
2021/10/31 00:28:13;;;;;;;14.98;12.27;;;;;;;9.57;63.16;96464.69;4824658;29;20030;-90
2021/10/31 00:30:39;;;;;;;19.17;13.13;;;;;;;9.69;62.89;96491.72;4833179;29;20381;-90
2021/10/31 00:33:05;;;;;;;15.40;11.80;;;;;;;9.77;62.21;96494.13;4827450;29;20026;-90
2021/10/31 00:35:31;;;;;;;16.73;11.65;;;;;;;9.66;61.99;96484.47;4827348;29;20117;-91
2021/10/31 00:37:56;;;;;;;14.32;11.45;;;;;;;9.75;62.27;96486.44;4842615;29;20041;-90
2021/10/31 00:40:22;;;;;;;14.55;11.75;;;;;;;9.92;61.86;96505.94;4828205;29;20037;-90
2021/10/31 00:42:48;;;;;;;13.93;11.68;;;;;;;9.82;62.32;96490.84;4827377;29;20028;-91
2021/10/31 00:45:13;;;;;;;16.02;11.85;;;;;;;9.73;61.26;96482.66;4827722;29;20121;-90
2021/10/31 00:47:39;;;;;;;16.48;12.35;;;;;;;9.79;61.29;96478.16;4827436;29;20436;-90
2021/10/31 00:50:06;;;;;;;18.05;12.23;;;;;;;9.73;60.89;96480.72;4827321;29;20053;-90
2021/10/31 00:52:32;;;;;;;20.00;12.32;;;;;;;9.71;60.90;96496.69;4827989;29;20049;-92
2021/10/31 00:54:58;;;;;;;14.65;12.20;;;;;;;9.64;61.03;96492.31;4829772;29;20022;-92
2021/10/31 00:57:25;;;;;;;16.90;12.02;;;;;;;9.69;60.22;96499.84;4831142;29;20026;-92
2021/10/31 00:59:51;;;;;;;17.58;12.35;;;;;;;9.52;60.79;96479.59;4831059;29;20041;-92
2021/10/31 01:02:17;;;;;;;17.55;13.32;;;;;;;9.54;61.48;96488.06;4827606;29;20025;-90
2021/10/31 01:04:47;;;;;;;16.95;13.65;;;;;;;9.54;61.80;96492.72;4826898;29;20060;-90
2021/10/31 01:07:37;;;;;;;21.27;14.65;;;;;;;9.56;62.66;96495.72;4843790;29;20030;-91
2021/10/31 01:10:29;;;;;;;20.60;15.63;;;;;;;9.48;63.12;96497.19;4843301;29;20041;-90
2021/10/31 01:13:17;;;;;;;18.40;14.10;;;;;;;9.37;63.34;96501.06;4827742;29;20038;-91
2021/10/31 01:16:10;;;;;;;20.13;14.90;;;;;;;9.30;63.53;96497.88;4824304;29;20495;-91
2021/10/31 01:19:01;;;;;;;22.27;14.10;;;;;;;9.26;63.36;96486.41;4809159;29;20030;-91
2021/10/31 01:21:41;;;;;;;18.45;12.95;;;;;;;9.26;63.03;96483.72;4809188;29;20102;-91
2021/10/31 01:24:25;;;;;;;;;;;;;;;9.29;61.40;96488.25;4825888;29;20480;-91
2021/10/31 01:27:20;;;;;;;13.30;10.85;;;;;;;9.19;61.89;96468.47;4824220;29;19913;-91
2021/10/31 01:29:52;;;;;;;13.65;10.02;;;;;;;9.35;59.86;96481.03;4809224;29;20062;-91
2021/10/31 01:32:28;;;;;;;12.95;9.75;;;;;;;9.22;60.16;96456.00;4824206;29;20039;-91
2021/10/31 01:35:03;;;;;;;13.77;9.60;;;;;;;9.40;58.40;96489.34;4808687;29;20054;-91
2021/10/31 01:37:28;;;;;;;12.75;8.77;;;;;;;9.44;58.99;96481.09;4824215;29;20034;-92
2021/10/31 01:40:18;;;;;;;11.27;8.93;;;;;;;9.47;58.45;96485.59;4808731;29;20049;-91
2021/10/31 01:43:06;;;;;;;12.57;9.30;;;;;;;9.47;58.06;96485.59;4831970;29;20025;-91
2021/10/31 01:45:39;;;;;;;11.55;7.97;;;;;;;9.37;58.62;96465.84;4808683;29;20035;-91
2021/10/31 01:48:21;;;;;;;11.10;8.55;;;;;;;9.40;57.80;96461.50;4824828;29;20030;-91
2021/10/31 01:50:48;;;;;;;11.80;7.90;;;;;;;9.54;57.38;96477.19;4808709;29;20030;-91
2021/10/31 01:53:49;;;;;;;11.65;8.63;;;;;;;9.43;59.00;96460.59;4809310;29;20380;-91
2021/10/31 01:56:18;;;;;;;10.13;8.32;;;;;;;9.38;58.58;96459.22;4753029;30;20059;-91
2021/10/31 01:58:49;;;;;;;13.40;8.63;;;;;;;9.46;57.68;96465.13;4820273;29;20098;-91
2021/10/31 02:01:16;;;;;;;11.05;8.23;;;;;;;9.42;57.57;96454.41;4843628;29;20086;-92
2021/10/31 02:03:44;;;;;;;11.43;8.57;;;;;;;9.39;58.30;96449.13;4826880;29;20117;-90
2021/10/31 02:06:11;;;;;;;12.35;8.48;;;;;;;9.31;57.41;96445.19;4826410;29;20049;-91
2021/10/31 02:08:41;;;;;;;11.52;8.60;;;;;;;9.38;57.88;96447.63;4826957;29;20041;-92
2021/10/31 02:11:10;;;;;;;11.70;8.60;;;;;;;9.34;56.74;96436.91;4826934;29;20497;-91
2021/10/31 02:13:39;;;;;;;12.55;8.55;;;;;;;9.38;58.53;96444.94;4826408;29;20041;-90
2021/10/31 02:16:05;;;;;;;11.55;8.20;;;;;;;9.38;57.86;96434.09;4843357;29;20037;-90
2021/10/31 02:18:32;;;;;;;9.85;7.47;;;;;;;9.33;57.19;96438.13;4829865;29;20506;-90
2021/10/31 02:21:00;;;;;;;10.10;8.02;;;;;;;9.41;57.10;96435.88;4829486;29;20033;-90
2021/10/31 02:23:28;;;;;;;10.65;8.10;;;;;;;9.37;56.94;96443.41;4846224;29;20029;-90
2021/10/31 02:25:54;;;;;;;11.35;7.57;;;;;;;9.40;57.06;96448.69;4845796;29;20029;-91
2021/10/31 02:28:27;;;;;;;12.00;7.85;;;;;;;9.45;56.89;96448.09;4829615;29;20045;-90
2021/10/31 02:30:53;;;;;;;10.93;8.13;;;;;;;9.21;56.91;96427.38;4841232;29;20061;-90
2021/10/31 02:33:19;;;;;;;10.95;7.88;;;;;;;9.19;56.42;96430.53;4848080;29;20106;-91
2021/10/31 02:35:45;;;;;;;12.65;7.68;;;;;;;9.22;57.75;96426.19;4847614;29;20057;-91
2021/10/31 02:38:10;;;;;;;9.98;7.60;;;;;;;9.16;57.32;96426.78;4847914;29;20067;-90
2021/10/31 02:40:36;;;;;;;12.13;7.78;;;;;;;9.28;57.08;96463.09;4848153;29;20060;-92
2021/10/31 02:43:04;;;;;;;10.00;7.68;;;;;;;9.06;58.52;96430.66;4847545;29;20040;-90
2021/10/31 02:45:29;;;;;;;11.38;7.57;;;;;;;9.06;57.69;96441.50;4847765;29;20090;-91
2021/10/31 02:47:59;;;;;;;10.68;7.88;;;;;;;9.20;57.13;96456.44;4847739;29;20033;-91
2021/10/31 02:50:29;;;;;;;8.60;7.05;;;;;;;9.14;57.23;96453.56;4847620;29;20030;-91
2021/10/31 02:53:10;;;;;;;9.07;7.38;;;;;;;9.07;57.86;96467.38;4847630;29;20132;-91
2021/10/31 02:55:50;;;;;;;11.15;8.15;;;;;;;9.02;58.70;96459.84;4847320;29;20038;-91
2021/10/31 02:58:25;;;;;;;9.80;7.03;;;;;;;8.97;58.55;96473.94;4847258;29;20033;-90
2021/10/31 03:00:56;;;;;;;9.27;7.32;;;;;;;8.91;58.07;96464.91;4847400;29;20028;-91
2021/10/31 03:03:22;;;;;;;8.90;7.40;;;;;;;8.83;57.97;96444.66;4847322;29;20029;-91
2021/10/31 03:05:53;;;;;;;10.10;7.35;;;;;;;8.93;58.55;96457.81;4847374;29;20367;-91
2021/10/31 03:08:22;;;;;;;9.05;7.15;;;;;;;8.92;57.17;96458.28;4847181;29;20025;-91
2021/10/31 03:10:50;;;;;;;9.63;7.43;;;;;;;8.73;58.45;96433.03;4847195;29;20041;-91
2021/10/31 03:13:15;;;;;;;9.93;7.38;;;;;;;8.74;58.46;96437.28;4862419;29;20025;-91
2021/10/31 03:15:41;;;;;;;9.88;7.32;;;;;;;8.66;58.54;96433.31;4847246;29;20041;-91
2021/10/31 03:18:06;;;;;;;10.88;7.60;;;;;;;8.72;57.62;96433.47;4862403;29;20044;-91
2021/10/31 03:20:32;;;;;;;10.80;7.18;;;;;;;8.71;58.17;96415.72;4846950;29;20057;-91
2021/10/31 03:22:57;;;;;;;11.27;7.53;;;;;;;8.77;58.04;96422.81;4847299;29;20025;-91
2021/10/31 03:25:23;;;;;;;10.57;7.68;;;;;;;8.77;57.87;96416.66;4847058;29;20033;-92
2021/10/31 03:27:51;;;;;;;9.10;7.40;;;;;;;8.91;57.49;96440.50;4842401;29;20141;-91
2021/10/31 03:30:18;;;;;;;8.73;7.45;;;;;;;8.75;57.70;96425.25;4835746;29;20030;-91
2021/10/31 03:32:43;;;;;;;8.93;7.35;;;;;;;8.84;58.02;96443.47;4846974;29;20081;-91
2021/10/31 03:35:09;;;;;;;11.18;7.50;;;;;;;8.75;58.36;96443.44;4840000;29;20136;-91
2021/10/31 03:37:35;;;;;;;8.30;7.22;;;;;;;8.82;58.45;96457.47;4828405;29;20040;-91
2021/10/31 03:40:01;;;;;;;16.27;11.23;;;;;;;8.61;60.44;96445.44;4828446;29;20044;-91
2021/10/31 03:42:27;;;;;;;15.85;9.88;;;;;;;8.45;60.48;96439.50;4828544;29;20030;-91
2021/10/31 03:44:52;;;;;;;16.15;10.35;;;;;;;8.46;61.12;96468.06;4828465;29;20086;-91
2021/10/31 03:47:19;;;;;;;16.02;11.65;;;;;;;8.38;61.50;96468.31;4827949;29;20059;-91
2021/10/31 03:49:45;;;;;;;16.42;12.35;;;;;;;8.17;62.63;96452.78;4828094;29;20065;-91
2021/10/31 03:52:12;;;;;;;19.00;12.73;;;;;;;8.07;62.65;96440.38;4827213;29;20065;-92
2021/10/31 03:54:38;;;;;;;19.33;13.20;;;;;;;8.01;62.78;96453.72;4826598;29;20033;-91
2021/10/31 03:57:04;;;;;;;20.10;13.25;;;;;;;7.77;63.28;96447.16;4826472;29;20038;-91
2021/10/31 03:59:30;;;;;;;20.30;13.20;;;;;;;7.71;64.08;96452.38;4827844;29;20117;-91
2021/10/31 04:01:56;;;;;;;21.58;14.75;;;;;;;7.61;65.24;96429.91;4828149;29;20060;-91
2021/10/31 04:04:21;;;;;;;20.08;13.43;;;;;;;7.50;65.16;96448.41;4844466;29;20030;-90
2021/10/31 04:06:47;;;;;;;20.02;14.43;;;;;;;7.60;66.73;96454.66;4810403;29;20058;-91
2021/10/31 04:09:12;;;;;;;26.15;14.73;;;;;;;7.53;65.66;96454.91;4810027;29;20373;-91
2021/10/31 04:11:38;;;;;;;18.75;14.07;;;;;;;7.50;66.21;96436.84;4809855;29;20026;-91
2021/10/31 04:14:04;;;;;;;20.63;14.80;;;;;;;7.41;66.28;96442.94;4810021;29;20065;-91
2021/10/31 04:16:29;;;;;;;20.25;13.85;;;;;;;7.33;66.37;96455.88;4809613;29;20035;-91
2021/10/31 04:18:55;;;;;;;19.65;14.55;;;;;;;7.26;67.29;96466.91;4809818;29;20066;-91
2021/10/31 04:21:21;;;;;;;19.88;14.38;;;;;;;7.13;67.25;96449.94;4811395;29;20022;-92
2021/10/31 04:23:46;;;;;;;20.75;13.70;;;;;;;7.18;65.92;96470.25;4809768;29;20034;-91
2021/10/31 04:26:12;;;;;;;17.75;13.73;;;;;;;7.06;66.70;96450.16;4809607;29;20095;-91
2021/10/31 04:28:38;;;;;;;20.45;13.77;;;;;;;7.04;66.16;96449.84;4809568;29;20030;-91
2021/10/31 04:31:03;;;;;;;19.65;14.45;;;;;;;6.91;66.16;96466.03;4835010;29;20037;-92
2021/10/31 04:33:29;;;;;;;19.25;13.80;;;;;;;6.78;66.79;96439.03;4861040;29;20143;-92
2021/10/31 04:35:54;;;;;;;20.77;14.05;;;;;;;6.87;66.69;96462.69;4830032;29;20060;-92
2021/10/31 04:38:24;;;;;;;16.88;12.82;;;;;;;6.76;65.83;96448.72;4827578;29;20025;-91
2021/10/31 04:40:50;;;;;;;21.95;14.63;;;;;;;6.76;66.85;96462.97;4827550;29;20090;-91
2021/10/31 04:43:15;;;;;;;21.13;13.93;;;;;;;6.57;67.26;96445.03;4827511;29;20030;-92
2021/10/31 04:45:44;;;;;;;18.80;13.57;;;;;;;6.53;67.66;96442.44;4827723;29;20044;-92
2021/10/31 04:48:10;;;;;;;15.85;13.23;;;;;;;6.78;67.00;96466.03;4827264;29;20060;-92
2021/10/31 04:50:37;;;;;;;19.17;13.63;;;;;;;6.48;66.98;96444.91;4827594;29;20057;-91
2021/10/31 04:53:05;;;;;;;22.98;14.45;;;;;;;6.37;68.27;96447.88;4827452;29;20025;-91
2021/10/31 04:55:31;;;;;;;19.88;14.73;;;;;;;6.38;68.45;96459.44;4827406;29;20018;-92
2021/10/31 04:57:57;;;;;;;22.58;14.55;;;;;;;6.31;68.95;96452.28;4827380;29;20112;-91
2021/10/31 05:00:24;;;;;;;22.80;15.13;;;;;;;6.43;68.69;96470.47;4827340;29;20054;-92
2021/10/31 05:02:51;;;;;;;19.98;14.82;;;;;;;6.21;68.77;96435.22;4826906;29;20042;-92
2021/10/31 05:05:18;;;;;;;19.08;14.60;;;;;;;6.44;68.88;96471.97;4826607;29;20113;-92
2021/10/31 05:07:43;;;;;;;22.38;14.65;;;;;;;6.22;69.11;96447.50;4827499;29;20030;-92
2021/10/31 05:10:09;;;;;;;21.52;14.90;;;;;;;6.02;69.06;96439.56;4840154;29;20116;-92
2021/10/31 05:12:35;;;;;;;20.58;14.68;;;;;;;6.13;68.50;96449.31;4845506;29;20085;-92
2021/10/31 05:15:02;;;;;;;20.75;14.60;;;;;;;5.99;70.09;96447.75;4860748;29;20025;-92
2021/10/31 05:17:27;;;;;;;18.27;14.68;;;;;;;6.00;69.42;96439.22;4835239;29;20042;-91
2021/10/31 05:19:53;;;;;;;22.25;14.68;;;;;;;5.87;70.45;96434.94;4826889;29;20497;-92
2021/10/31 05:22:18;;;;;;;20.08;14.32;;;;;;;5.92;69.13;96448.69;4821053;29;20042;-92
2021/10/31 05:24:44;;;;;;;21.63;13.95;;;;;;;5.76;69.95;96438.66;4809080;29;20030;-92
2021/10/31 05:27:09;;;;;;;20.42;14.20;;;;;;;5.86;70.38;96442.28;4824935;29;20111;-91
2021/10/31 05:29:44;;;;;;;19.00;14.52;;;;;;;5.92;70.12;96456.03;4811175;29;20034;-92
2021/10/31 05:32:13;;;;;;;18.60;13.85;;;;;;;5.89;70.47;96465.69;4828997;29;20026;-93
2021/10/31 05:34:39;;;;;;;16.50;13.82;;;;;;;5.81;69.95;96442.78;4828092;29;20760;-92
2021/10/31 05:37:04;;;;;;;17.83;12.90;;;;;;;5.73;70.89;96442.19;4830323;29;20045;-93
2021/10/31 05:39:30;;;;;;;19.90;14.40;;;;;;;5.81;70.69;96445.50;4840595;29;20027;-93
2021/10/31 05:41:56;;;;;;;17.75;13.50;;;;;;;5.92;71.18;96464.88;4826831;29;20080;-92
2021/10/31 05:44:21;;;;;;;19.52;12.82;;;;;;;5.74;70.13;96438.31;4826879;29;20034;-92
2021/10/31 05:46:47;;;;;;;20.95;14.10;;;;;;;5.82;70.66;96440.84;4826762;29;20112;-93
2021/10/31 05:49:13;;;;;;;18.98;13.88;;;;;;;5.82;70.50;96452.38;4826531;29;20030;-92
2021/10/31 05:51:39;;;;;;;24.88;14.18;;;;;;;5.63;70.62;96447.84;4829164;29;20105;-91
2021/10/31 05:54:04;;;;;;;23.30;14.20;;;;;;;5.96;70.26;96481.69;4829011;29;20033;-92
2021/10/31 05:56:30;;;;;;;21.67;14.23;;;;;;;5.74;70.60;96451.03;4817300;29;20040;-93
2021/10/31 05:58:56;;;;;;;18.88;14.15;;;;;;;5.74;70.68;96456.44;4827053;29;20487;-92
2021/10/31 06:01:21;;;;;;;22.40;14.93;;;;;;;5.86;70.94;96465.75;4846392;29;20026;-93
2021/10/31 06:03:47;;;;;;;21.58;14.63;;;;;;;5.64;70.80;96439.34;4826209;29;20037;-92
2021/10/31 06:06:12;;;;;;;21.85;14.57;;;;;;;5.76;71.11;96471.00;4828772;29;20391;-92
2021/10/31 06:08:38;;;;;;;24.58;16.55;;;;;;;5.68;71.67;96440.00;4835609;29;20036;-93
2021/10/31 06:11:04;;;;;;;25.63;15.82;;;;;;;5.84;71.03;96471.59;4828897;29;20559;-92
2021/10/31 06:13:30;;;;;;;24.67;16.33;;;;;;;5.85;71.52;96483.13;4829470;29;20076;-92
2021/10/31 06:15:55;;;;;;;24.92;16.60;;;;;;;5.72;71.98;96448.78;4829756;29;20049;-93
2021/10/31 06:18:21;;;;;;;26.38;16.27;;;;;;;5.90;72.17;96461.78;4833674;29;20104;-91
2021/10/31 06:20:47;;;;;;;31.55;17.08;;;;;;;6.16;71.63;96486.97;4863242;29;20021;-92
2021/10/31 06:23:14;;;;;;;27.17;16.73;;;;;;;6.11;71.82;96476.69;4841519;29;20060;-91
2021/10/31 06:25:41;;;;;;;23.95;17.25;;;;;;;6.04;72.12;96466.88;4843365;29;20080;-91
2021/10/31 06:28:07;;;;;;;24.88;16.63;;;;;;;5.92;72.45;96431.75;4811971;29;20053;-93
2021/10/31 06:30:32;;;;;;;23.70;16.35;;;;;;;5.87;71.68;96434.94;4835045;29;20508;-93
2021/10/31 06:32:58;;;;;;;21.45;15.48;;;;;;;6.11;71.02;96462.47;4828168;29;20098;-93
2021/10/31 06:35:23;;;;;;;26.13;16.35;;;;;;;6.02;71.39;96449.59;4820818;29;20544;-93
2021/10/31 06:37:49;;;;;;;22.20;15.23;;;;;;;6.10;71.05;96450.91;4832815;29;20117;-92
2021/10/31 06:40:16;;;;;;;21.48;15.93;;;;;;;6.32;71.15;96485.44;4844011;29;20038;-93
2021/10/31 06:42:42;;;;;;;21.90;15.52;;;;;;;6.14;70.92;96446.19;4813895;29;20064;-92
2021/10/31 06:45:09;;;;;;;21.45;14.68;;;;;;;6.47;70.79;96481.16;4810983;29;20034;-92
2021/10/31 06:47:34;;;;;;;20.27;14.68;;;;;;;6.33;70.68;96455.31;4825571;29;20136;-92
2021/10/31 06:50:01;;;;;;;19.02;13.40;;;;;;;6.34;71.04;96450.69;4811294;29;20482;-92
2021/10/31 06:52:27;;;;;;;19.17;13.82;;;;;;;6.55;70.77;96458.19;4843902;29;20034;-92
2021/10/31 06:54:53;;;;;;;19.77;13.07;;;;;;;6.63;70.39;96472.25;4815009;29;20038;-92
2021/10/31 06:57:18;;;;;;;15.57;12.25;;;;;;;6.57;69.96;96445.03;4810998;29;20037;-93
2021/10/31 06:59:44;;;;;;;17.23;11.90;;;;;;;6.78;69.82;96467.97;4810866;29;20031;-93
2021/10/31 07:02:09;;;;;;;17.70;12.05;;;;;;;6.72;69.65;96456.19;4817416;29;20026;-92
2021/10/31 07:04:35;;;;;;;16.80;12.40;;;;;;;6.95;69.35;96482.13;4824180;29;20061;-93
2021/10/31 07:07:02;;;;;;;16.95;12.38;;;;;;;6.97;69.34;96466.25;4845047;29;20026;-93
2021/10/31 07:09:27;;;;;;;18.48;12.63;;;;;;;7.07;69.35;96465.19;4828896;29;20037;-92
2021/10/31 07:11:53;;;;;;;19.02;12.43;;;;;;;6.88;69.05;96439.16;4828051;29;20468;-92
2021/10/31 07:14:18;;;;;;;15.77;12.43;;;;;;;7.31;68.79;96482.59;4828687;29;20030;-92
2021/10/31 07:16:45;;;;;;;16.00;12.77;;;;;;;7.43;68.62;96483.03;4825912;29;20384;-92
2021/10/31 07:19:10;;;;;;;18.17;12.63;;;;;;;7.26;68.91;96450.72;4828293;29;20042;-93
2021/10/31 07:21:37;;;;;;;25.83;14.65;;;;;;;7.35;69.62;96456.22;4828362;29;20030;-93
2021/10/31 07:24:05;;;;;;;28.85;14.98;;;;;;;7.43;68.75;96450.59;4828598;29;20053;-92
2021/10/31 07:26:30;;;;;;;20.58;15.38;;;;;;;7.42;68.94;96459.91;4828629;29;20507;-93
2021/10/31 07:28:56;;;;;;;21.55;15.40;;;;;;;7.37;69.52;96428.00;4828598;29;20033;-93
2021/10/31 07:31:23;;;;;;;22.70;14.52;;;;;;;7.50;68.86;96456.50;4843521;29;20463;-93
2021/10/31 07:33:48;;;;;;;20.50;15.07;;;;;;;7.50;68.77;96444.94;4846329;29;20032;-93
2021/10/31 07:36:14;;;;;;;20.52;14.18;;;;;;;7.61;68.20;96454.22;4810259;29;20054;-92
2021/10/31 07:38:41;;;;;;;20.38;14.65;;;;;;;7.68;68.31;96455.97;4825046;29;20037;-92
2021/10/31 07:41:06;;;;;;;19.40;14.02;;;;;;;7.66;68.51;96447.53;4825794;29;20126;-93
2021/10/31 07:43:32;;;;;;;20.17;14.70;;;;;;;7.70;68.37;96448.16;4826187;29;20058;-93
2021/10/31 07:45:58;;;;;;;21.58;15.18;;;;;;;7.74;68.55;96448.81;4825367;29;20034;-92
2021/10/31 07:48:24;;;;;;;20.58;14.63;;;;;;;7.94;68.55;96458.63;4810047;29;20125;-94
2021/10/31 07:50:49;;;;;;;18.25;13.70;;;;;;;7.81;67.92;96429.63;4817648;29;20121;-92
2021/10/31 07:53:15;;;;;;;19.13;13.13;;;;;;;8.07;68.43;96454.66;4827975;29;20090;-92
2021/10/31 07:55:43;;;;;;;18.77;12.65;;;;;;;7.88;68.29;96421.31;4828042;29;20025;-93
2021/10/31 07:58:09;;;;;;;16.67;12.82;;;;;;;8.12;68.32;96456.81;4843527;29;20072;-93
2021/10/31 08:00:36;;;;;;;17.00;12.60;;;;;;;8.23;68.27;96447.56;4851832;29;20034;-92
2021/10/31 08:03:01;;;;;;;15.85;12.32;;;;;;;8.10;67.72;96409.75;4849968;29;20097;-92
2021/10/31 08:05:27;;;;;;;20.83;12.77;;;;;;;8.26;66.88;96419.66;4843581;29;20034;-92
2021/10/31 08:07:54;;;;;;;18.80;12.35;;;;;;;8.27;67.07;96418.44;4832949;29;20030;-92
2021/10/31 08:10:20;;;;;;;20.13;12.90;;;;;;;8.51;66.77;96437.72;4845001;29;20102;-91
2021/10/31 08:12:45;;;;;;;20.35;11.93;;;;;;;8.37;66.62;96407.28;4827732;29;20124;-91
2021/10/31 08:15:11;;;;;;;15.23;12.13;;;;;;;8.58;66.81;96421.22;4826886;29;20034;-92
2021/10/31 08:17:38;;;;;;;18.58;12.40;;;;;;;8.57;65.50;96408.88;4827831;29;20114;-92
2021/10/31 08:20:04;;;;;;;15.48;11.05;;;;;;;8.60;65.22;96399.88;4827559;29;20476;-92
2021/10/31 08:22:29;;;;;;;17.10;11.68;;;;;;;8.66;65.52;96403.53;4818542;29;20122;-90
2021/10/31 08:24:56;;;;;;;15.98;11.38;;;;;;;8.69;65.53;96396.47;4808468;29;20066;-92
2021/10/31 08:27:21;;;;;;;17.60;11.18;;;;;;;8.82;65.77;96394.41;4809213;29;20030;-92
2021/10/31 08:29:47;;;;;;;19.10;11.95;;;;;;;8.87;65.21;96383.00;4815919;29;20036;-92
2021/10/31 08:32:14;;;;;;;23.55;10.90;;;;;;;9.08;63.65;96403.84;4860892;29;20025;-91
2021/10/31 08:34:40;;;;;;;12.40;8.80;;;;;;;9.03;63.10;96380.06;4845434;29;20589;-90
2021/10/31 08:37:06;;;;;;;11.52;9.05;;;;;;;9.29;62.01;96399.56;4845461;29;20057;-91
2021/10/31 08:39:31;;;;;;;14.52;8.55;;;;;;;9.41;61.40;96397.94;4845099;29;20033;-91
2021/10/31 08:41:57;;;;;;;12.63;8.63;;;;;;;9.47;61.49;96389.97;4845447;29;20033;-92
2021/10/31 08:44:24;;;;;;;12.40;8.82;;;;;;;9.48;61.54;96386.03;4845290;29;20029;-91
2021/10/31 08:46:49;;;;;;;14.93;9.07;;;;;;;9.58;61.63;96385.59;4843117;29;20070;-90
2021/10/31 08:49:16;;;;;;;14.10;8.90;;;;;;;9.66;60.94;96381.41;4818802;29;20034;-92
2021/10/31 08:51:41;;;;;;;10.32;7.82;;;;;;;9.73;60.72;96379.59;4819451;29;20068;-92
2021/10/31 08:54:07;;;;;;;12.38;9.73;;;;;;;9.89;61.05;96393.63;4825285;29;20065;-92
2021/10/31 08:56:33;;;;;;;13.57;10.50;;;;;;;9.95;61.43;96399.94;4818572;29;20044;-92
2021/10/31 08:59:00;;;;;;;14.18;9.68;;;;;;;9.77;61.34;96355.81;4815197;29;20030;-92
2021/10/31 09:01:27;;;;;;;14.57;8.52;;;;;;;10.05;59.07;96386.38;4825231;29;20033;-91
2021/10/31 09:03:53;;;;;;;11.50;8.45;;;;;;;9.97;58.97;96354.16;4817550;29;20025;-91
2021/10/31 09:06:24;;;;;;;12.82;8.50;;;;;;;10.22;58.19;96377.47;4814155;29;20118;-91
2021/10/31 09:08:50;;;;;;;12.48;7.45;;;;;;;10.18;57.98;96343.56;4819129;29;20818;-91
2021/10/31 09:11:15;;;;;;;8.75;7.82;;;;;;;10.33;57.83;96360.00;4840154;29;20124;-92
2021/10/31 09:13:41;;;;;;;11.02;7.43;;;;;;;10.36;58.15;96340.09;4826191;29;20045;-91
2021/10/31 09:16:06;;;;;;;9.35;6.85;;;;;;;10.46;57.95;96360.59;4819233;29;20046;-91
2021/10/31 09:18:33;;;;;;;10.32;8.07;;;;;;;10.43;57.20;96345.94;4818495;29;20030;-91
2021/10/31 09:20:59;;;;;;;8.07;7.15;;;;;;;10.51;56.75;96340.22;4816549;29;20440;-91
2021/10/31 09:23:25;;;;;;;9.52;7.13;;;;;;;10.55;57.15;96335.38;4820384;29;20041;-91
2021/10/31 09:25:51;;;;;;;9.48;7.57;;;;;;;10.77;57.66;96346.75;4812519;29;20035;-92
2021/10/31 09:28:17;;;;;;;10.00;7.10;;;;;;;10.79;56.96;96336.19;4827580;29;20022;-90
2021/10/31 09:30:43;;;;;;;9.25;7.50;;;;;;;10.80;56.56;96337.69;4832395;29;20125;-90
2021/10/31 09:33:11;;;;;;;10.38;7.57;;;;;;;10.81;56.56;96303.13;4823709;29;20042;-91
2021/10/31 09:35:55;;;;;;;10.60;7.60;;;;;;;11.05;55.77;96327.63;4825498;29;20056;-91
2021/10/31 09:38:25;;;;;;;10.40;7.07;;;;;;;11.08;55.10;96322.03;4817903;29;20046;-90
2021/10/31 09:40:51;;;;;;;8.73;6.93;;;;;;;11.14;55.19;96308.53;4815872;29;20022;-90
2021/10/31 09:43:17;;;;;;;9.57;7.47;;;;;;;11.34;54.92;96326.97;4843893;29;20121;-89
2021/10/31 09:45:43;;;;;;;9.15;7.53;;;;;;;11.30;54.50;96315.56;4825008;29;20463;-90
2021/10/31 09:48:11;;;;;;;8.57;6.53;;;;;;;11.38;54.22;96294.94;4826919;29;20038;-90
2021/10/31 09:50:42;;;;;;;8.98;7.25;;;;;;;11.37;54.54;96294.19;4826868;29;20036;-90
2021/10/31 09:53:09;;;;;;;8.80;7.25;;;;;;;11.61;53.52;96313.22;4815879;29;20041;-91
2021/10/31 09:55:35;;;;;;;8.65;7.25;;;;;;;11.58;53.58;96294.34;4825025;29;20033;-90
2021/10/31 09:58:04;;;;;;;8.60;6.85;;;;;;;11.76;53.99;96310.50;4829621;29;20026;-91
2021/10/31 10:00:44;;;;;;;7.97;6.65;;;;;;;11.77;53.61;96301.91;4825140;29;20120;-87
2021/10/31 10:06:18;;;;;;;11.60;7.63;;;;;;;12.00;52.05;96316.69;4839331;29;20113;-88
2021/10/31 10:09:10;;;;;;;9.82;7.05;;;;;;;12.04;52.74;96311.81;4845674;29;20113;-90
2021/10/31 10:11:39;;;;;;;9.80;7.53;;;;;;;12.07;52.65;96305.41;4830625;29;20090;-87
2021/10/31 10:14:30;;;;;;;8.87;6.57;;;;;;;12.15;51.41;96300.38;4811166;29;20400;-87
2021/10/31 10:17:00;;;;;;;9.40;6.65;;;;;;;12.20;51.96;96307.13;4817367;29;20037;-87
2021/10/31 10:19:34;;;;;;;8.93;6.82;;;;;;;12.29;52.42;96296.13;4821991;29;20046;-87
2021/10/31 10:22:06;;;;;;;7.78;6.25;;;;;;;12.18;51.51;96266.00;4835079;29;20014;-89
2021/10/31 10:24:35;;;;;;;9.90;6.63;;;;;;;12.30;52.24;96268.44;4828889;29;20061;-87
2021/10/31 10:27:05;;;;;;;7.47;6.40;;;;;;;12.54;52.83;96283.91;4828986;29;20048;-87
2021/10/31 10:29:35;;;;;;;7.65;5.95;;;;;;;12.57;52.76;96272.84;4830321;29;20407;-88
2021/10/31 10:32:06;;;;;;;9.80;6.93;;;;;;;12.65;52.12;96267.72;4839127;29;20026;-87
2021/10/31 10:34:38;;;;;;;8.77;6.40;;;;;;;12.80;50.04;96273.91;4811539;29;20468;-88
2021/10/31 10:37:10;;;;;;;8.50;6.85;;;;;;;12.72;51.00;96247.50;4843167;29;20030;-86
2021/10/31 10:39:37;;;;;;;8.55;6.50;;;;;;;13.03;50.13;96272.22;4845395;29;20030;-86
2021/10/31 10:42:04;;;;;;;9.88;6.57;;;;;;;13.17;50.76;96270.69;4845098;29;20383;-86
2021/10/31 10:44:39;;;;;;;14.15;7.32;;;;;;;13.23;50.03;96244.25;4828420;29;20057;-86
2021/10/31 10:47:09;;;;;;;8.25;6.22;;;;;;;13.45;49.94;96249.22;4826360;29;20048;-86
2021/10/31 10:49:39;;;;;;;7.25;6.30;;;;;;;13.59;48.21;96256.56;4825006;29;20034;-85
2021/10/31 10:52:06;;;;;;;7.13;5.85;;;;;;;13.71;47.84;96257.44;4824291;29;20048;-85
2021/10/31 10:54:36;;;;;;;7.40;5.70;;;;;;;13.65;47.86;96232.06;4845038;29;20082;-86
2021/10/31 10:57:08;;;;;;;9.30;5.73;;;;;;;13.81;47.08;96217.09;4828673;29;20125;-86
2021/10/31 10:59:37;;;;;;;7.22;5.85;;;;;;;14.02;47.26;96228.72;4834134;29;20085;-86
2021/10/31 11:02:11;;;;;;;7.10;5.35;;;;;;;14.10;45.32;96232.47;4846766;29;20026;-86
2021/10/31 11:04:38;;;;;;;8.68;6.05;;;;;;;14.05;45.96;96214.81;4862444;29;20034;-86
2021/10/31 11:07:05;;;;;;;7.35;5.80;;;;;;;14.20;46.70;96225.63;4862313;29;20038;-86
2021/10/31 11:09:42;;;;;;;8.68;5.75;;;;;;;14.31;45.96;96230.41;4846873;29;20410;-86
2021/10/31 11:12:26;;;;;;;8.50;6.20;;;;;;;14.31;45.05;96217.50;4846691;29;20490;-86
2021/10/31 11:15:13;;;;;;;8.48;5.90;;;;;;;14.40;43.63;96211.88;4836679;29;20498;-85
2021/10/31 11:17:40;;;;;;;6.75;5.60;;;;;;;14.57;44.92;96214.75;4828432;29;20042;-86
2021/10/31 11:20:08;;;;;;;9.70;5.38;;;;;;;14.45;44.91;96191.28;4844282;29;20116;-85
2021/10/31 11:22:34;;;;;;;6.68;5.65;;;;;;;14.72;43.74;96216.56;4828295;29;20083;-86
2021/10/31 11:25:01;;;;;;;6.82;5.30;;;;;;;14.68;44.08;96192.19;4828239;29;20026;-86
2021/10/31 11:27:29;;;;;;;5.60;5.00;;;;;;;14.85;42.79;96203.22;4828134;29;20037;-86
2021/10/31 11:29:57;;;;;;;5.60;4.82;;;;;;;14.92;41.90;96200.03;4832224;29;20053;-86
2021/10/31 11:32:24;;;;;;;7.07;5.00;;;;;;;14.82;41.83;96169.41;4845979;29;20109;-85
2021/10/31 11:34:52;;;;;;;6.28;4.45;;;;;;;15.05;41.72;96188.66;4844331;29;20054;-86
2021/10/31 11:37:21;;;;;;;6.78;4.70;;;;;;;14.99;42.45;96158.53;4828280;29;20064;-86